Time;durP1;ratioP1;P1;durP2;ratioP2;P2;SDS_P1;SDS_P2;PMS_P1;PMS_P2;Temp;Humidity;BMP_temperature;BMP_pressure;BME280_temperature;BME280_humidity;BME280_pressure;Samples;Min_cycle;Max_cycle;Signal;HPM_P1;HPM_P2
2023/10/17 00:00:26;;;;;;;7.30;3.60;;;11.00;51.30;;;;;;4904046;29;20512;-51
2023/10/17 00:02:51;;;;;;;3.50;3.03;;;11.00;51.00;;;;;;4914901;29;20464;-50
2023/10/17 00:05:19;;;;;;;6.23;4.07;;;10.90;51.00;;;;;;4915982;29;20897;-50
2023/10/17 00:07:46;;;;;;;4.67;3.70;;;10.80;51.00;;;;;;4916398;29;20212;-53
2023/10/17 00:10:14;;;;;;;4.07;3.67;;;10.90;51.10;;;;;;4916607;29;20444;-52
2023/10/17 00:12:43;;;;;;;5.20;4.10;;;10.80;51.10;;;;;;4902758;29;20456;-54
2023/10/17 00:15:35;;;;;;;4.50;3.40;;;10.80;51.10;;;;;;4908751;29;20635;-51
2023/10/17 00:18:02;;;;;;;4.90;4.40;;;10.70;51.10;;;;;;4900645;29;20465;-52
2023/10/17 00:20:32;;;;;;;4.43;3.83;;;10.70;51.30;;;;;;4897925;29;20449;-54
2023/10/17 00:22:58;;;;;;;6.87;4.87;;;10.60;51.20;;;;;;4902182;29;20440;-50
2023/10/17 00:25:26;;;;;;;5.70;4.20;;;10.60;51.70;;;;;;4906185;29;20467;-51
2023/10/17 00:27:51;;;;;;;7.70;4.00;;;10.50;51.40;;;;;;4901373;29;21416;-51
2023/10/17 00:30:17;;;;;;;4.53;4.13;;;10.50;52.00;;;;;;4911199;29;20462;-48
2023/10/17 00:32:44;;;;;;;4.33;3.93;;;10.40;52.40;;;;;;4910109;29;20189;-55
2023/10/17 00:35:18;;;;;;;5.37;4.20;;;10.40;52.40;;;;;;4898814;29;20631;-50
2023/10/17 00:37:51;;;;;;;4.73;3.47;;;10.40;52.60;;;;;;4905991;29;21275;-55
2023/10/17 00:43:15;;;;;;;8.90;4.40;;;10.30;52.80;;;;;;4905328;29;20449;-54
2023/10/17 00:45:43;;;;;;;5.57;3.50;;;10.20;53.60;;;;;;4904811;29;20540;-51
2023/10/17 00:48:17;;;;;;;4.27;3.60;;;10.00;53.60;;;;;;4904556;29;20535;-52
2023/10/17 00:50:48;;;;;;;5.30;3.73;;;10.00;54.10;;;;;;4908435;29;20474;-51
2023/10/17 00:53:14;;;;;;;5.00;4.00;;;10.00;53.90;;;;;;4904831;29;20461;-50
2023/10/17 00:55:50;;;;;;;4.23;3.70;;;10.00;53.80;;;;;;4903917;29;20487;-51
2023/10/17 00:58:18;;;;;;;3.83;3.53;;;10.00;53.90;;;;;;4902821;29;20558;-52
2023/10/17 01:00:53;;;;;;;5.37;3.90;;;10.00;53.80;;;;;;4900995;29;20616;-49
2023/10/17 01:03:20;;;;;;;4.00;3.40;;;10.00;53.50;;;;;;4903437;29;20466;-54
2023/10/17 01:06:13;;;;;;;4.17;3.77;;;10.10;53.20;;;;;;4900025;29;20441;-49
2023/10/17 01:08:39;;;;;;;7.50;4.17;;;10.20;53.00;;;;;;4896986;29;20473;-52
2023/10/17 01:11:20;;;;;;;3.77;3.47;;;10.10;52.70;;;;;;4895005;29;20536;-51
2023/10/17 01:13:52;;;;;;;4.60;3.47;;;10.10;52.60;;;;;;4899915;29;20528;-54
2023/10/17 01:16:18;;;;;;;6.13;4.17;;;10.00;52.70;;;;;;4896933;29;20488;-51
2023/10/17 01:18:44;;;;;;;4.30;3.50;;;10.00;52.70;;;;;;4898726;29;20572;-51
2023/10/17 01:21:18;;;;;;;3.73;3.43;;;9.90;53.60;;;;;;4898232;29;20453;-48
2023/10/17 01:23:47;;;;;;;3.73;3.27;;;10.00;52.80;;;;;;4898249;29;20452;-49
2023/10/17 01:26:23;;;;;;;5.30;4.03;;;9.90;53.40;;;;;;4895710;29;20456;-48
2023/10/17 01:28:51;;;;;;;4.80;4.30;;;9.90;53.50;;;;;;4900327;29;21444;-51
2023/10/17 01:31:22;;;;;;;4.10;3.77;;;9.90;53.60;;;;;;4898419;29;20437;-50
2023/10/17 01:33:54;;;;;;;4.20;3.90;;;9.80;53.80;;;;;;4897692;29;22168;-49
2023/10/17 01:36:19;;;;;;;5.90;3.60;;;9.80;53.90;;;;;;4896065;29;20528;-53
2023/10/17 01:38:46;;;;;;;4.97;3.53;;;9.80;54.00;;;;;;4897881;29;20555;-53
2023/10/17 01:41:12;;;;;;;5.53;4.10;;;9.80;54.10;;;;;;4899443;29;20189;-50
2023/10/17 01:43:45;;;;;;;5.63;4.70;;;9.80;54.00;;;;;;4902880;29;20433;-52
2023/10/17 01:46:15;;;;;;;6.63;3.80;;;9.80;53.80;;;;;;4906791;29;21156;-51
2023/10/17 01:48:46;;;;;;;5.20;4.27;;;9.80;53.70;;;;;;4903131;29;20677;-51
2023/10/17 01:51:13;;;;;;;4.30;3.67;;;9.80;53.60;;;;;;4901263;29;20464;-49
2023/10/17 01:53:39;;;;;;;4.30;3.67;;;9.90;53.60;;;;;;4905103;29;20919;-54
2023/10/17 01:56:18;;;;;;;4.80;4.00;;;9.90;53.40;;;;;;4903474;29;21035;-48
2023/10/17 01:58:50;;;;;;;3.63;3.33;;;9.80;53.20;;;;;;4901744;29;20537;-50
2023/10/17 02:01:24;;;;;;;3.90;3.50;;;9.70;53.30;;;;;;4904838;29;20582;-48
2023/10/17 02:03:57;;;;;;;4.67;3.50;;;9.60;53.40;;;;;;4908682;29;20464;-54
2023/10/17 02:06:23;;;;;;;4.33;3.63;;;9.60;53.50;;;;;;4901088;29;20549;-52
2023/10/17 02:08:48;;;;;;;4.00;3.60;;;9.60;53.30;;;;;;4904018;29;20560;-52
2023/10/17 02:11:23;;;;;;;4.80;3.97;;;9.60;53.30;;;;;;4898021;29;20189;-50
2023/10/17 02:13:56;;;;;;;5.30;4.00;;;9.60;53.90;;;;;;4906401;29;20185;-50
2023/10/17 02:16:29;;;;;;;6.97;3.57;;;9.60;53.50;;;;;;4908027;29;20525;-51
2023/10/17 02:18:58;;;;;;;4.07;3.67;;;9.60;53.60;;;;;;4910624;29;20465;-52
2023/10/17 02:21:26;;;;;;;4.63;4.23;;;9.60;53.60;;;;;;4915375;29;20437;-51
2023/10/17 02:23:51;;;;;;;4.97;3.80;;;9.60;53.50;;;;;;4908621;29;20449;-53
2023/10/17 02:26:21;;;;;;;5.13;3.10;;;9.70;53.40;;;;;;4909497;29;21045;-50
2023/10/17 02:28:59;;;;;;;3.93;3.63;;;9.60;53.30;;;;;;4911591;29;20236;-50
2023/10/17 02:31:29;;;;;;;4.00;3.40;;;9.60;53.20;;;;;;4904050;29;21017;-53
2023/10/17 02:33:56;;;;;;;5.90;3.90;;;9.60;53.30;;;;;;4906645;29;20480;-54
2023/10/17 02:36:21;;;;;;;4.00;3.67;;;9.60;53.30;;;;;;4909231;29;21148;-51
2023/10/17 02:38:47;;;;;;;3.20;2.90;;;9.50;53.30;;;;;;4902377;29;20469;-49
2023/10/17 02:41:18;;;;;;;3.20;2.90;;;9.40;53.70;;;;;;4904434;29;20190;-50
2023/10/17 02:43:45;;;;;;;4.57;4.10;;;9.50;54.00;;;;;;4903750;29;20471;-50
2023/10/17 02:46:14;;;;;;;3.27;2.83;;;9.50;53.90;;;;;;4906709;29;20448;-50
2023/10/17 02:48:42;;;;;;;3.80;3.50;;;9.50;53.90;;;;;;4908848;29;20480;-52
2023/10/17 02:53:52;;;;;;;3.73;3.37;;;9.40;54.00;;;;;;4905384;29;20824;-52
2023/10/17 02:56:18;;;;;;;4.00;3.60;;;9.40;54.00;;;;;;4904034;29;20480;-50
2023/10/17 02:58:50;;;;;;;4.40;3.23;;;9.40;53.90;;;;;;4903589;29;20459;-53
2023/10/17 03:01:16;;;;;;;4.23;3.60;;;9.40;54.00;;;;;;4900132;29;20447;-47
2023/10/17 03:03:42;;;;;;;5.07;3.83;;;9.50;54.00;;;;;;4906174;29;20451;-50
2023/10/17 03:06:16;;;;;;;4.90;3.57;;;9.40;53.90;;;;;;4908271;29;20536;-49
2023/10/17 03:08:42;;;;;;;3.60;3.07;;;9.40;53.90;;;;;;4903053;29;20304;-49
2023/10/17 03:11:08;;;;;;;4.60;3.70;;;9.30;54.40;;;;;;4904578;29;20535;-51
2023/10/17 03:13:40;;;;;;;4.00;3.60;;;9.40;54.30;;;;;;4904174;29;21158;-49
2023/10/17 03:16:25;;;;;;;4.50;3.63;;;9.40;54.00;;;;;;4902380;29;20315;-48
2023/10/17 03:18:58;;;;;;;4.27;3.73;;;9.50;53.80;;;;;;4904605;29;20987;-51
2023/10/17 03:21:58;;;;;;;3.67;3.23;;;9.40;53.60;;;;;;4901377;29;20454;-49
2023/10/17 03:24:19;;;;;;;3.70;3.33;;;9.40;53.60;;;;;;4904058;29;20517;-50
2023/10/17 03:26:54;;;;;;;3.67;3.33;;;9.40;53.70;;;;;;4902274;29;20432;-52
2023/10/17 03:29:23;;;;;;;4.40;3.10;;;9.40;53.70;;;;;;4898696;29;20472;-49
2023/10/17 03:31:53;;;;;;;3.50;3.20;;;9.30;54.30;;;;;;4899917;29;20445;-50
2023/10/17 03:34:29;;;;;;;4.77;3.83;;;9.10;54.30;;;;;;4900104;29;20453;-53
2023/10/17 03:36:55;;;;;;;4.00;3.70;;;9.00;55.20;;;;;;4903103;29;20487;-51
2023/10/17 03:39:21;;;;;;;3.97;3.60;;;8.80;55.50;;;;;;4902750;29;20846;-50
2023/10/17 03:41:56;;;;;;;4.77;3.43;;;8.70;56.30;;;;;;4898178;29;20448;-52
2023/10/17 03:44:29;;;;;;;3.90;3.60;;;8.60;56.30;;;;;;4907023;29;20449;-53
2023/10/17 03:46:55;;;;;;;4.00;3.30;;;8.50;56.50;;;;;;4902068;29;20541;-54
2023/10/17 03:49:22;;;;;;;4.40;3.40;;;8.50;57.10;;;;;;4901627;29;22109;-53
2023/10/17 03:51:52;;;;;;;4.13;3.70;;;8.50;57.10;;;;;;4900040;29;20961;-49
2023/10/17 03:54:22;;;;;;;3.90;3.50;;;8.70;56.80;;;;;;4912003;29;21008;-50
2023/10/17 03:57:02;;;;;;;3.80;3.50;;;8.80;56.50;;;;;;4909380;29;20485;-49
2023/10/17 03:59:50;;;;;;;6.80;4.03;;;9.00;56.20;;;;;;4906839;29;20528;-50
2023/10/17 04:02:20;;;;;;;5.77;3.83;;;9.10;55.70;;;;;;4900702;29;21215;-51
2023/10/17 04:04:55;;;;;;;4.13;3.40;;;9.10;55.20;;;;;;4900141;29;20481;-49
2023/10/17 04:07:27;;;;;;;4.60;3.70;;;9.10;55.10;;;;;;4901080;29;20458;-52
2023/10/17 04:09:55;;;;;;;3.77;3.47;;;9.10;55.10;;;;;;4913715;29;20475;-50
2023/10/17 04:12:23;;;;;;;4.40;3.27;;;8.70;56.00;;;;;;4909529;29;20561;-51
2023/10/17 04:15:10;;;;;;;4.77;3.90;;;8.70;56.60;;;;;;4909550;29;20449;-52
2023/10/17 04:17:38;;;;;;;3.73;3.43;;;8.70;56.60;;;;;;4902225;29;20482;-52
2023/10/17 04:20:16;;;;;;;4.20;3.63;;;8.80;56.30;;;;;;4905940;29;20485;-49
2023/10/17 04:22:45;;;;;;;3.63;3.30;;;9.00;56.10;;;;;;4901237;29;20469;-54
2023/10/17 04:28:05;;;;;;;5.93;3.83;;;9.10;55.70;;;;;;4895745;29;20547;-54
2023/10/17 04:30:35;;;;;;;4.97;3.23;;;9.10;55.50;;;;;;4898821;29;20949;-52
2023/10/17 04:33:12;;;;;;;4.80;3.53;;;9.10;55.60;;;;;;4901817;29;20204;-53
2023/10/17 04:35:47;;;;;;;3.30;3.00;;;9.10;55.80;;;;;;4896785;29;21005;-51
2023/10/17 04:38:19;;;;;;;3.40;3.10;;;9.10;55.60;;;;;;4899973;29;20476;-51
2023/10/17 04:40:54;;;;;;;4.20;3.80;;;9.10;55.70;;;;;;4914079;29;20453;-51
2023/10/17 04:46:08;;;;;;;4.70;3.50;;;9.20;55.50;;;;;;4900448;29;21062;-51
2023/10/17 04:48:36;;;;;;;4.93;4.00;;;9.20;55.50;;;;;;4903169;29;20544;-49
2023/10/17 04:53:49;;;;;;;3.73;3.00;;;9.30;55.70;;;;;;4903184;29;20472;-50
2023/10/17 04:56:22;;;;;;;4.97;3.50;;;9.40;55.50;;;;;;4904353;29;20504;-50
2023/10/17 05:01:41;;;;;;;4.07;3.77;;;9.50;55.10;;;;;;4899568;29;20437;-52
2023/10/17 05:04:18;;;;;;;6.70;4.70;;;9.50;55.00;;;;;;4901735;29;20241;-47
2023/10/17 06:17:47;;;;;;;8.60;3.80;;;11.10;51.70;;;;;;4911481;29;20425;-51
2023/10/17 06:20:13;;;;;;;5.77;4.00;;;11.10;51.40;;;;;;4911738;29;20985;-51
2023/10/17 06:28:28;;;;;;;6.10;5.03;;;11.10;51.50;;;;;;4906090;29;20451;-51
2023/10/17 06:33:38;;;;;;;5.37;4.10;;;11.10;51.50;;;;;;4902660;29;21071;-51
2023/10/17 06:36:16;;;;;;;4.77;3.63;;;11.10;51.80;;;;;;4909543;29;20574;-51
2023/10/17 06:38:46;;;;;;;4.43;3.97;;;11.10;51.90;;;;;;4907997;29;20313;-50
2023/10/17 06:41:27;;;;;;;4.47;3.90;;;11.20;52.00;;;;;;4910967;29;20449;-49
2023/10/17 06:43:54;;;;;;;5.63;4.23;;;11.30;51.70;;;;;;4907040;29;21252;-51
2023/10/17 06:46:28;;;;;;;4.57;3.93;;;11.50;51.60;;;;;;4910295;29;20795;-50
2023/10/17 06:48:57;;;;;;;5.00;4.20;;;11.50;51.30;;;;;;4901005;29;20852;-51
2023/10/17 06:51:30;;;;;;;8.03;4.43;;;11.40;51.30;;;;;;4905085;29;20441;-51
2023/10/17 06:53:57;;;;;;;5.10;4.17;;;11.30;51.40;;;;;;4906125;29;20449;-50
2023/10/17 06:56:25;;;;;;;5.53;4.13;;;11.30;51.60;;;;;;4917776;29;21234;-50
2023/10/17 06:58:51;;;;;;;5.23;4.40;;;11.20;51.70;;;;;;4912290;29;20992;-51
2023/10/17 07:01:24;;;;;;;5.53;4.37;;;11.10;52.00;;;;;;4913856;29;20536;-51
2023/10/17 07:03:54;;;;;;;5.00;4.30;;;11.00;52.40;;;;;;4904159;29;20193;-50
2023/10/17 07:06:24;;;;;;;5.40;4.90;;;11.00;52.70;;;;;;4903730;29;20968;-49
2023/10/17 07:08:50;;;;;;;5.50;4.60;;;11.00;52.80;;;;;;4911262;29;20566;-49
2023/10/17 07:16:42;;;;;;;6.40;5.07;;;11.10;53.00;;;;;;4912151;29;20570;-50
2023/10/17 07:24:33;;;;;;;5.30;4.80;;;10.60;54.20;;;;;;4910701;29;20467;-50
2023/10/17 07:27:01;;;;;;;6.07;4.90;;;10.40;55.50;;;;;;4915375;29;20991;-54
2023/10/17 07:29:27;;;;;;;5.33;4.83;;;10.20;56.00;;;;;;4907077;29;20461;-49
2023/10/17 07:31:54;;;;;;;6.83;4.73;;;10.10;56.50;;;;;;4911539;29;20456;-50
2023/10/17 07:34:33;;;;;;;7.90;5.10;;;10.00;56.70;;;;;;4911138;29;20248;-49
2023/10/17 07:37:12;;;;;;;6.90;4.67;;;10.30;57.50;;;;;;4913222;29;20477;-52
2023/10/17 07:39:38;;;;;;;5.57;5.03;;;10.60;56.60;;;;;;4917689;29;20571;-51
2023/10/17 07:42:05;;;;;;;9.03;5.37;;;10.70;55.80;;;;;;4910984;29;20899;-49
2023/10/17 07:44:41;;;;;;;8.67;5.23;;;10.50;55.50;;;;;;4907961;29;20449;-53
2023/10/17 07:49:37;;;;;;;7.73;4.87;;;10.30;57.10;;;;;;4916860;29;21245;-51
2023/10/17 07:52:12;;;;;;;8.07;5.73;;;10.40;57.20;;;;;;4913554;29;20478;-51
2023/10/17 07:54:45;;;;;;;6.80;5.80;;;10.40;56.50;;;;;;4910674;29;20678;-49
2023/10/17 07:57:17;;;;;;;6.87;5.37;;;10.30;56.90;;;;;;4908609;29;20846;-50
2023/10/17 07:59:51;;;;;;;8.17;6.50;;;10.40;56.70;;;;;;4905621;29;20521;-52
2023/10/17 08:02:22;;;;;;;6.23;5.63;;;10.30;56.90;;;;;;4910690;29;20453;-50
2023/10/17 08:04:50;;;;;;;6.67;6.07;;;10.10;57.30;;;;;;4916912;29;20453;-50
2023/10/17 08:07:22;;;;;;;9.30;6.13;;;10.00;57.80;;;;;;4908899;29;20438;-48
2023/10/17 08:09:50;;;;;;;8.23;6.20;;;10.20;57.90;;;;;;4898417;29;20497;-48
2023/10/17 08:12:22;;;;;;;8.87;6.60;;;10.60;57.20;;;;;;4908281;29;20468;-52
2023/10/17 08:14:58;;;;;;;8.13;6.40;;;10.90;56.90;;;;;;4904396;29;20544;-47
2023/10/17 08:17:34;;;;;;;7.50;5.93;;;11.20;56.30;;;;;;4911382;29;20481;-54
2023/10/17 08:20:00;;;;;;;7.07;6.27;;;11.20;55.90;;;;;;4913171;29;20492;-52
2023/10/17 08:22:26;;;;;;;8.77;7.20;;;11.30;56.30;;;;;;4913206;29;20462;-52
2023/10/17 08:24:53;;;;;;;8.63;6.60;;;11.20;56.40;;;;;;4914154;29;20207;-52
2023/10/17 08:33:18;;;;;;;8.77;6.90;;;11.70;56.10;;;;;;4913821;29;20964;-53
2023/10/17 08:35:20;;;;;;;8.73;7.00;;;11.90;55.70;;;;;;4903686;29;20957;-48
2023/10/17 08:37:46;;;;;;;10.50;7.77;;;12.00;55.00;;;;;;4905770;29;20461;-49
2023/10/17 08:43:19;;;;;;;7.27;3.80;;;11.80;54.80;;;;;;4911727;29;20504;-54
2023/10/17 08:45:54;;;;;;;13.93;7.77;;;12.00;63.60;;;;;;4909487;29;20457;-50
2023/10/17 08:48:19;;;;;;;15.03;9.07;;;12.80;57.00;;;;;;4912521;29;20844;-51
2023/10/17 08:50:45;;;;;;;10.40;9.00;;;12.90;53.40;;;;;;4910504;29;20446;-49
2023/10/17 08:53:13;;;;;;;10.53;8.53;;;12.90;52.70;;;;;;4903268;29;20628;-51
2023/10/17 08:55:40;;;;;;;8.67;7.87;;;12.90;52.80;;;;;;4905156;29;20213;-50
2023/10/17 08:58:08;;;;;;;11.57;8.53;;;12.70;53.10;;;;;;4909967;29;20469;-49
2023/10/17 09:03:29;;;;;;;12.10;9.00;;;12.30;54.20;;;;;;4904888;29;20516;-48
2023/10/17 09:08:55;;;;;;;11.90;8.57;;;12.60;53.70;;;;;;4907728;29;20547;-52
2023/10/17 09:11:33;;;;;;;10.90;8.67;;;12.60;53.60;;;;;;4908653;29;20453;-52
2023/10/17 09:14:24;;;;;;;9.17;8.10;;;12.80;53.30;;;;;;4910451;29;20437;-52
2023/10/17 09:19:50;;;;;;;10.83;8.77;;;13.00;52.70;;;;;;4908970;29;20592;-52
2023/10/17 09:22:18;;;;;;;11.40;8.70;;;12.80;52.70;;;;;;4906026;29;20468;-52
2023/10/17 09:24:50;;;;;;;11.03;9.17;;;12.90;53.30;;;;;;4911463;29;20453;-52
2023/10/17 09:27:19;;;;;;;11.07;9.07;;;13.10;52.90;;;;;;4907904;29;20473;-51
2023/10/17 09:29:58;;;;;;;12.40;9.80;;;13.30;52.60;;;;;;4912671;29;20560;-50
2023/10/17 09:32:38;;;;;;;12.20;9.40;;;13.40;52.40;;;;;;4903133;29;20454;-48
2023/10/17 09:35:15;;;;;;;10.40;8.90;;;13.60;52.10;;;;;;4905513;29;20458;-49
2023/10/17 09:37:43;;;;;;;10.73;9.63;;;13.60;51.80;;;;;;4902565;29;20487;-49
2023/10/17 09:40:13;;;;;;;11.73;9.50;;;13.60;51.70;;;;;;4903713;29;20442;-50
2023/10/17 09:42:47;;;;;;;10.40;8.77;;;13.70;51.90;;;;;;4900789;29;20434;-50
2023/10/17 09:45:14;;;;;;;11.80;10.43;;;13.80;51.70;;;;;;4911100;29;20436;-51
2023/10/17 09:47:44;;;;;;;11.20;9.17;;;13.60;52.00;;;;;;4911456;29;20425;-51
2023/10/17 09:50:16;;;;;;;12.03;9.20;;;13.80;51.90;;;;;;4914940;29;20420;-52
2023/10/17 09:52:45;;;;;;;10.97;8.80;;;14.00;51.80;;;;;;4907590;29;21011;-48
2023/10/17 09:55:14;;;;;;;11.37;10.17;;;14.00;51.40;;;;;;4907778;29;20777;-48
2023/10/17 09:57:43;;;;;;;9.93;8.80;;;14.00;51.60;;;;;;4907225;29;21365;-49
2023/10/17 10:00:14;;;;;;;12.97;9.93;;;14.00;51.30;;;;;;4911523;29;21012;-51
2023/10/17 10:02:41;;;;;;;10.13;9.03;;;14.20;51.20;;;;;;4907442;29;20449;-48
2023/10/17 10:05:24;;;;;;;11.53;10.30;;;14.20;51.40;;;;;;4910804;29;20483;-50
2023/10/17 10:07:53;;;;;;;10.70;9.33;;;14.20;50.90;;;;;;4911483;29;20483;-50
2023/10/17 10:10:53;;;;;;;10.63;9.03;;;14.40;50.70;;;;;;4910934;29;20450;-52
2023/10/17 10:13:20;;;;;;;12.17;9.40;;;14.40;50.50;;;;;;4910786;29;20437;-50
2023/10/17 10:15:59;;;;;;;10.00;8.97;;;14.40;50.90;;;;;;4908074;29;20512;-48
2023/10/17 10:18:38;;;;;;;11.50;9.40;;;14.60;51.00;;;;;;4905998;29;20487;-49
2023/10/17 10:21:07;;;;;;;12.80;10.13;;;14.80;50.40;;;;;;4910343;29;20902;-49
2023/10/17 10:23:34;;;;;;;9.80;8.80;;;14.70;50.10;;;;;;4914290;29;20524;-50
2023/10/17 10:26:11;;;;;;;11.57;9.63;;;14.60;50.50;;;;;;4911623;29;20485;-51
2023/10/17 10:28:38;;;;;;;12.07;10.47;;;14.70;50.30;;;;;;4909017;29;20461;-49
2023/10/17 10:31:22;;;;;;;11.43;10.23;;;14.80;50.60;;;;;;4908425;29;20807;-50
2023/10/17 10:33:49;;;;;;;11.70;10.03;;;14.90;50.10;;;;;;4910380;29;20437;-49
2023/10/17 10:36:22;;;;;;;12.53;10.00;;;15.10;49.90;;;;;;4907979;29;20481;-46
2023/10/17 10:38:47;;;;;;;11.07;8.80;;;15.10;49.60;;;;;;4906092;29;21136;-51
2023/10/17 10:41:13;;;;;;;12.83;10.17;;;15.20;49.60;;;;;;4915476;29;20491;-49
2023/10/17 10:43:43;;;;;;;12.60;11.30;;;15.30;49.30;;;;;;4909563;29;20193;-50
2023/10/17 10:46:09;;;;;;;13.13;10.50;;;15.40;49.00;;;;;;4908389;29;20296;-49
2023/10/17 10:48:34;;;;;;;11.07;9.77;;;15.00;49.30;;;;;;4916013;29;21197;-48
2023/10/17 10:51:01;;;;;;;14.87;10.93;;;15.10;49.70;;;;;;4917440;29;20466;-48
2023/10/17 10:53:28;;;;;;;10.47;9.47;;;15.30;49.30;;;;;;4913176;29;20198;-49
2023/10/17 10:55:59;;;;;;;11.40;10.20;;;15.50;49.10;;;;;;4914846;29;20492;-49
2023/10/17 10:58:27;;;;;;;11.53;9.70;;;15.30;49.10;;;;;;4915563;29;20497;-49
2023/10/17 11:00:58;;;;;;;11.80;10.70;;;15.20;49.70;;;;;;4912650;29;20452;-49
2023/10/17 11:03:24;;;;;;;9.67;8.67;;;15.40;49.30;;;;;;4915717;29;21100;-50
2023/10/17 11:06:03;;;;;;;13.17;10.33;;;15.60;49.10;;;;;;4914476;29;20445;-51
2023/10/17 11:08:46;;;;;;;11.70;10.00;;;15.90;48.90;;;;;;4906342;29;20500;-50
2023/10/17 11:11:15;;;;;;;12.07;10.17;;;16.10;48.40;;;;;;4911723;29;20463;-51
2023/10/17 11:13:48;;;;;;;11.00;9.53;;;15.80;48.40;;;;;;4911410;29;20516;-49
2023/10/17 11:16:32;;;;;;;9.87;8.83;;;15.90;48.80;;;;;;4911094;29;20484;-50
2023/10/17 11:18:57;;;;;;;11.30;9.73;;;16.20;48.30;;;;;;4917084;29;20524;-48
2023/10/17 11:21:23;;;;;;;13.90;9.90;;;16.30;47.60;;;;;;4910706;28;20429;-51
2023/10/17 11:24:09;;;;;;;11.50;9.20;;;16.60;47.90;;;;;;4914799;29;20185;-51
2023/10/17 11:26:39;;;;;;;11.87;10.37;;;16.70;47.30;;;;;;4909231;29;20524;-50
2023/10/17 11:29:07;;;;;;;10.20;9.20;;;16.70;47.40;;;;;;4913987;29;20556;-50
2023/10/17 11:31:33;;;;;;;13.30;10.10;;;16.80;47.10;;;;;;4916326;29;20445;-49
2023/10/17 11:34:04;;;;;;;9.70;8.70;;;16.80;47.10;;;;;;4904624;29;20533;-51
2023/10/17 11:36:36;;;;;;;10.27;9.37;;;16.90;47.50;;;;;;4907023;29;20255;-51
2023/10/17 11:39:05;;;;;;;12.17;9.47;;;16.80;46.90;;;;;;4912927;29;20457;-50
2023/10/17 11:41:39;;;;;;;11.40;10.20;;;16.10;47.30;;;;;;4912672;29;20441;-54
2023/10/17 11:44:06;;;;;;;10.77;9.63;;;16.00;48.40;;;;;;4908951;29;20473;-51
2023/10/17 11:46:33;;;;;;;10.17;9.17;;;16.10;48.30;;;;;;4905816;29;20961;-49
2023/10/17 11:49:21;;;;;;;10.33;9.33;;;16.40;48.20;;;;;;4906500;29;20462;-51
2023/10/17 11:52:00;;;;;;;11.00;9.07;;;16.60;47.60;;;;;;4911430;29;20450;-48
2023/10/17 11:54:26;;;;;;;11.77;8.63;;;16.70;47.30;;;;;;4903745;29;20445;-52
2023/10/17 11:56:54;;;;;;;9.57;8.60;;;16.70;47.50;;;;;;4906560;29;20481;-52
2023/10/17 11:59:20;;;;;;;10.33;9.13;;;16.70;47.20;;;;;;4914246;29;20469;-49
2023/10/17 12:01:47;;;;;;;11.10;8.73;;;17.00;46.90;;;;;;4914885;29;20830;-50
2023/10/17 12:04:16;;;;;;;10.87;9.73;;;16.80;47.10;;;;;;4910706;29;20193;-47
2023/10/17 12:06:44;;;;;;;10.73;9.53;;;16.80;47.10;;;;;;4902465;29;20441;-48
2023/10/17 12:11:50;;;;;;;12.70;9.77;;;16.40;48.20;;;;;;4903472;29;21152;-50
2023/10/17 12:14:20;;;;;;;11.27;10.17;;;16.50;48.00;;;;;;4909806;29;20505;-51
2023/10/17 12:16:58;;;;;;;11.83;9.57;;;16.60;47.90;;;;;;4909240;29;20477;-49
2023/10/17 12:19:26;;;;;;;11.57;9.77;;;16.70;47.60;;;;;;4901172;29;21380;-49
2023/10/17 12:22:00;;;;;;;10.20;9.10;;;16.60;47.30;;;;;;4910321;29;20509;-52
2023/10/17 12:24:28;;;;;;;11.87;8.60;;;16.50;47.70;;;;;;4906487;29;20449;-50
2023/10/17 12:26:56;;;;;;;10.70;9.43;;;16.50;48.00;;;;;;4905420;29;20453;-50
2023/10/17 12:29:28;;;;;;;10.80;9.70;;;16.50;47.90;;;;;;4912774;29;20827;-53
2023/10/17 12:31:55;;;;;;;10.20;9.20;;;16.50;48.00;;;;;;4910094;29;20938;-51
2023/10/17 12:34:20;;;;;;;9.20;8.30;;;16.50;48.50;;;;;;4910488;29;20845;-52
2023/10/17 12:36:47;;;;;;;11.70;10.53;;;16.70;48.50;;;;;;4908613;29;20485;-53
2023/10/17 12:39:16;;;;;;;11.20;9.33;;;16.50;47.50;;;;;;4906755;29;20216;-48
2023/10/17 12:41:42;;;;;;;10.60;9.50;;;16.70;48.10;;;;;;4910492;29;20488;-51
2023/10/17 12:44:09;;;;;;;13.33;10.10;;;16.90;47.80;;;;;;4912757;29;20528;-53
2023/10/17 12:46:35;;;;;;;10.73;9.60;;;17.20;47.10;;;;;;4908043;29;20457;-52
2023/10/17 12:49:01;;;;;;;11.43;9.70;;;17.20;47.10;;;;;;4906966;29;20469;-54
2023/10/17 12:51:27;;;;;;;11.13;9.30;;;17.30;46.80;;;;;;4912203;29;20814;-54
2023/10/17 12:53:54;;;;;;;13.47;10.63;;;17.50;46.60;;;;;;4899687;29;20996;-52
2023/10/17 12:56:20;;;;;;;11.53;10.30;;;17.20;46.70;;;;;;4906301;29;20481;-50
2023/10/17 12:58:46;;;;;;;10.60;9.50;;;16.70;47.50;;;;;;4910020;29;20461;-52
2023/10/17 13:01:12;;;;;;;10.57;9.07;;;16.70;48.00;;;;;;4911766;29;20445;-48
2023/10/17 13:03:38;;;;;;;10.27;9.27;;;16.90;47.60;;;;;;4909889;29;20468;-51
2023/10/17 13:06:05;;;;;;;12.10;9.80;;;17.20;47.80;;;;;;4902757;29;20599;-47
2023/10/17 13:08:32;;;;;;;10.73;9.43;;;17.10;47.10;;;;;;4907475;29;20461;-49
2023/10/17 13:10:58;;;;;;;9.80;8.90;;;17.20;47.60;;;;;;4907201;29;21047;-51
2023/10/17 13:13:24;;;;;;;13.90;9.07;;;17.20;47.50;;;;;;4906886;29;20503;-51
2023/10/17 13:15:50;;;;;;;10.40;8.90;;;17.00;47.40;;;;;;4906648;29;20514;-51
2023/10/17 13:18:16;;;;;;;11.37;9.20;;;17.00;47.70;;;;;;4906810;29;20495;-47
2023/10/17 13:20:54;;;;;;;12.73;10.27;;;17.30;47.30;;;;;;4909047;29;20186;-48
2023/10/17 13:23:20;;;;;;;14.23;8.40;;;17.50;47.00;;;;;;4911593;29;20915;-51
2023/10/17 13:25:46;;;;;;;9.80;8.80;;;17.70;46.90;;;;;;4902733;29;20987;-50
2023/10/17 13:28:12;;;;;;;10.67;9.60;;;17.70;46.70;;;;;;4907503;29;20543;-50
2023/10/17 13:30:38;;;;;;;14.07;10.43;;;17.70;46.60;;;;;;4910700;29;20444;-49
2023/10/17 13:33:04;;;;;;;12.00;9.20;;;17.60;46.50;;;;;;4907365;29;20194;-48
2023/10/17 13:35:30;;;;;;;9.43;8.50;;;17.50;46.80;;;;;;4905017;29;20193;-48
2023/10/17 13:37:56;;;;;;;10.53;9.43;;;17.50;46.70;;;;;;4906336;29;20449;-50
2023/10/17 13:40:25;;;;;;;9.57;8.67;;;17.50;47.20;;;;;;4902382;29;20777;-50
2023/10/17 13:42:54;;;;;;;9.53;8.53;;;17.60;46.90;;;;;;4914894;29;20460;-49
2023/10/17 13:45:21;;;;;;;9.07;8.13;;;17.80;46.60;;;;;;4915525;29;20429;-48
2023/10/17 13:47:50;;;;;;;8.83;7.97;;;17.80;46.50;;;;;;4915395;29;20449;-52
2023/10/17 13:50:19;;;;;;;14.97;7.73;;;17.70;46.40;;;;;;4912367;29;20468;-50
2023/10/17 13:52:49;;;;;;;10.07;9.07;;;17.70;46.80;;;;;;4911184;29;20464;-50
2023/10/17 13:55:28;;;;;;;12.83;9.20;;;17.60;46.50;;;;;;4905622;29;20452;-49
2023/10/17 13:58:04;;;;;;;11.00;8.47;;;17.70;46.60;;;;;;4908774;29;21296;-50
2023/10/17 14:00:43;;;;;;;9.70;8.70;;;17.70;46.80;;;;;;4913704;29;20453;-50
2023/10/17 14:03:15;;;;;;;9.37;8.57;;;17.70;46.40;;;;;;4911733;29;20429;-49
2023/10/17 14:05:47;;;;;;;10.20;9.10;;;17.80;46.50;;;;;;4906912;29;20465;-50
2023/10/17 14:08:21;;;;;;;15.00;9.63;;;18.00;46.40;;;;;;4913784;29;20516;-50
2023/10/17 14:10:48;;;;;;;12.07;9.20;;;18.20;46.40;;;;;;4911927;29;20449;-50
2023/10/17 14:13:16;;;;;;;8.80;8.00;;;18.20;46.10;;;;;;4915063;29;20433;-49
2023/10/17 14:15:43;;;;;;;7.77;6.97;;;18.10;45.80;;;;;;4911008;29;20473;-50
2023/10/17 14:18:16;;;;;;;11.10;7.63;;;18.10;45.90;;;;;;4909672;29;20919;-48
2023/10/17 14:23:30;;;;;;;8.83;7.70;;;18.10;46.10;;;;;;4908045;29;20501;-50
2023/10/17 14:26:09;;;;;;;9.00;8.10;;;17.90;46.30;;;;;;4908690;29;20456;-51
2023/10/17 14:28:36;;;;;;;9.33;7.60;;;17.60;46.80;;;;;;4905841;29;20556;-49
2023/10/17 14:31:05;;;;;;;9.23;7.27;;;17.60;47.00;;;;;;4904256;29;21251;-47
2023/10/17 14:33:32;;;;;;;7.97;7.13;;;17.50;47.10;;;;;;4907452;29;20456;-55
2023/10/17 14:36:05;;;;;;;9.03;8.00;;;17.50;46.90;;;;;;4909662;29;20499;-49
2023/10/17 14:38:34;;;;;;;9.97;7.57;;;17.50;46.90;;;;;;4898026;29;20457;-48
2023/10/17 14:41:06;;;;;;;10.60;7.10;;;17.50;47.30;;;;;;4901726;29;20509;-49
2023/10/17 14:43:32;;;;;;;10.77;6.90;;;17.40;47.20;;;;;;4903831;29;20477;-53
2023/10/17 14:45:59;;;;;;;8.37;7.60;;;17.60;47.10;;;;;;4912490;29;20441;-53
2023/10/17 14:48:25;;;;;;;7.53;6.73;;;17.60;46.70;;;;;;4902706;29;20220;-46
2023/10/17 14:50:50;;;;;;;7.70;6.43;;;17.70;46.50;;;;;;4911173;29;20429;-53
2023/10/17 14:53:19;;;;;;;7.40;6.70;;;17.60;46.30;;;;;;4913245;29;20708;-52
2023/10/17 14:56:04;;;;;;;9.00;5.90;;;17.50;46.60;;;;;;4912090;29;20225;-51
2023/10/17 14:58:32;;;;;;;7.50;6.30;;;17.50;46.90;;;;;;4913874;29;20473;-50
2023/10/17 15:00:58;;;;;;;6.83;5.90;;;17.40;46.90;;;;;;4912615;29;20429;-54
2023/10/17 15:03:25;;;;;;;6.87;6.10;;;17.40;47.30;;;;;;4910769;29;21333;-49
2023/10/17 15:05:54;;;;;;;6.50;5.93;;;17.60;47.00;;;;;;4913762;29;20197;-53
2023/10/17 15:08:20;;;;;;;6.33;5.83;;;17.70;46.40;;;;;;4908402;29;20464;-51
2023/10/17 15:10:45;;;;;;;6.70;5.83;;;17.70;46.80;;;;;;4914939;29;20945;-50
2023/10/17 15:13:11;;;;;;;8.07;5.97;;;17.70;46.10;;;;;;4913909;29;20193;-47